createdAt,value
2019-05-29T00:00:02.689Z,98942.95
2019-05-29T00:02:10.478Z,98938.08
2019-05-29T00:04:18.453Z,98941.16
2019-05-29T00:06:25.147Z,98940.75
2019-05-29T00:08:32.452Z,98934.13
2019-05-29T00:10:38.990Z,98936.89
2019-05-29T00:12:45.414Z,98944.38
2019-05-29T00:14:53.407Z,98942.95
2019-05-29T00:16:59.986Z,98945.98
2019-05-29T00:19:07.006Z,98950.81
2019-05-29T00:21:14.707Z,98957.38
2019-05-29T00:23:21.367Z,98953.42
2019-05-29T00:25:27.897Z,98963.67
2019-05-29T00:27:34.375Z,98959.22
2019-05-29T00:29:40.842Z,98958.30
2019-05-29T00:31:47.311Z,98964.42
2019-05-29T00:33:53.921Z,98957.77
2019-05-29T00:36:00.422Z,98955.92
2019-05-29T00:38:06.829Z,98953.67
2019-05-29T00:40:15.073Z,98953.22
2019-05-29T00:42:22.730Z,98945.17
2019-05-29T00:44:34.210Z,98941.17
2019-05-29T00:46:37.382Z,98943.80
2019-05-29T00:48:43.838Z,98947.80
2019-05-29T00:50:50.254Z,98954.91
2019-05-29T00:52:56.652Z,98955.42
2019-05-29T00:55:06.519Z,98951.42
2019-05-29T00:57:13.023Z,98953.17
2019-05-29T00:59:19.537Z,98948.66
2019-05-29T01:01:26.067Z,98952.25
2019-05-29T01:03:32.486Z,98949.58
2019-05-29T01:05:38.895Z,98951.84
2019-05-29T01:07:45.363Z,98943.42
2019-05-29T01:09:53.318Z,98942.97
2019-05-29T01:11:59.779Z,98937.69
2019-05-29T01:14:06.508Z,98927.53
2019-05-29T01:16:13.323Z,98925.73
2019-05-29T01:18:20.061Z,98925.23
2019-05-29T01:20:26.529Z,98925.69
2019-05-29T01:22:32.996Z,98930.52
2019-05-29T01:24:39.464Z,98931.44
2019-05-29T01:26:45.899Z,98938.05
2019-05-29T01:28:52.282Z,98934.01
2019-05-29T01:30:58.681Z,98941.13
2019-05-29T01:33:05.247Z,98933.13
2019-05-29T01:35:13.752Z,98943.33
2019-05-29T01:37:20.375Z,98948.25
2019-05-29T01:39:27.737Z,98952.25
2019-05-29T01:41:34.388Z,98951.38
2019-05-29T01:43:40.784Z,98954.04
2019-05-29T01:45:47.394Z,98954.96
2019-05-29T01:47:53.892Z,98947.52
2019-05-29T01:50:00.408Z,98953.77
2019-05-29T01:52:07.245Z,98957.47
2019-05-29T01:54:13.790Z,98957.98
2019-05-29T01:56:20.269Z,98965.09
2019-05-29T01:58:28.014Z,98965.05
2019-05-29T02:00:34.689Z,98970.38
2019-05-29T02:02:41.086Z,98969.14
2019-05-29T02:04:47.583Z,98966.94
2019-05-29T02:06:54.126Z,98967.48
2019-05-29T02:09:00.534Z,98968.39
2019-05-29T02:11:08.684Z,98976.85
2019-05-29T02:13:15.266Z,98969.73
2019-05-29T02:15:31.696Z,98979.52
2019-05-29T02:17:31.775Z,98981.38
2019-05-29T02:19:38.187Z,98983.67
2019-05-29T02:21:44.678Z,98983.72
2019-05-29T02:23:51.313Z,98983.22
2019-05-29T02:25:57.714Z,98989.00
2019-05-29T02:28:04.213Z,98986.34
2019-05-29T02:30:13.097Z,98991.66
2019-05-29T02:32:19.706Z,98993.09
2019-05-29T02:34:27.860Z,98993.13
2019-05-29T02:36:34.388Z,98989.17
2019-05-29T02:38:40.897Z,98999.33
2019-05-29T02:40:47.313Z,98994.46
2019-05-29T02:42:53.955Z,98997.13
2019-05-29T02:45:00.571Z,98998.91
2019-05-29T02:47:07.101Z,99002.95
2019-05-29T02:49:13.679Z,98999.00
2019-05-29T02:51:21.942Z,99007.07
2019-05-29T02:53:30.809Z,99007.57
2019-05-29T02:55:37.538Z,99008.95
2019-05-29T02:57:43.998Z,99014.36
2019-05-29T02:59:50.467Z,99013.58
2019-05-29T03:01:57.000Z,99016.31
2019-05-29T03:04:03.548Z,99014.91
2019-05-29T03:06:10.159Z,99017.06
2019-05-29T03:08:16.786Z,99025.47
2019-05-29T03:10:24.790Z,99025.80
2019-05-29T03:12:33.501Z,99020.94
2019-05-29T03:14:39.826Z,99022.69
2019-05-29T03:16:46.206Z,99025.77
2019-05-29T03:18:52.617Z,99028.88
2019-05-29T03:20:59.013Z,99034.16
2019-05-29T03:23:05.608Z,99032.42
2019-05-29T03:25:12.246Z,99039.95
2019-05-29T03:27:19.709Z,99045.16
2019-05-29T03:29:27.984Z,99045.12
2019-05-29T03:31:39.716Z,99045.95
2019-05-29T03:33:49.019Z,99059.19
2019-05-29T03:35:50.481Z,99060.89
2019-05-29T03:37:58.973Z,99067.97
2019-05-29T03:40:07.985Z,99075.39
2019-05-29T03:42:14.511Z,99077.97
2019-05-29T03:44:20.928Z,99077.38
2019-05-29T03:46:34.374Z,99083.02
2019-05-29T03:48:35.531Z,99092.67
2019-05-29T03:50:42.497Z,99098.83
2019-05-29T03:52:49.073Z,99104.20
2019-05-29T03:54:55.477Z,99107.33
2019-05-29T03:57:02.028Z,99110.41
2019-05-29T03:59:08.501Z,99113.08
2019-05-29T04:01:14.980Z,99116.39
2019-05-29T04:03:22.982Z,99132.84
2019-05-29T04:05:30.800Z,99133.86
2019-05-29T04:07:38.271Z,99142.61
2019-05-29T04:09:45.121Z,99143.38
2019-05-29T04:11:52.465Z,99153.61
2019-05-29T04:13:59.400Z,99156.13
2019-05-29T04:16:07.700Z,99162.44
2019-05-29T04:18:19.646Z,99169.48
2019-05-29T04:20:29.559Z,99174.16
2019-05-29T04:22:43.046Z,99174.30
2019-05-29T04:24:52.949Z,99176.83
2019-05-29T04:27:04.318Z,99184.02
2019-05-29T04:29:12.155Z,99193.47
2019-05-29T04:31:18.634Z,99196.30
2019-05-29T04:33:25.039Z,99199.17
2019-05-29T04:35:32.665Z,99201.83
2019-05-29T04:37:40.642Z,99204.34
2019-05-29T04:39:47.220Z,99204.78
2019-05-29T04:41:53.596Z,99210.40
2019-05-29T04:44:00.017Z,99220.20
2019-05-29T04:46:06.421Z,99225.30
2019-05-29T04:48:12.843Z,99226.16
2019-05-29T04:50:19.358Z,99234.20
2019-05-29T04:52:25.966Z,99244.63
2019-05-29T04:54:33.388Z,99247.64
2019-05-29T04:56:40.128Z,99261.27
2019-05-29T04:58:47.571Z,99259.25
2019-05-29T05:00:59.281Z,99263.91
2019-05-29T05:03:02.087Z,99276.92
2019-05-29T05:05:11.748Z,99282.29
2019-05-29T05:07:18.233Z,99285.77
2019-05-29T05:09:24.627Z,99287.67
2019-05-29T05:11:31.361Z,99292.23
2019-05-29T05:13:37.824Z,99294.53
2019-05-29T05:15:46.904Z,99298.64
2019-05-29T05:17:54.117Z,99302.29
2019-05-29T05:20:00.662Z,99301.53
2019-05-29T05:22:07.229Z,99300.73
2019-05-29T05:24:13.776Z,99311.81
2019-05-29T05:26:20.427Z,99311.83
2019-05-29T05:28:27.999Z,99322.36
2019-05-29T05:30:34.570Z,99318.42
2019-05-29T05:32:41.711Z,99321.02
2019-05-29T05:34:48.214Z,99321.50
2019-05-29T05:36:57.480Z,99328.08
2019-05-29T05:39:05.641Z,99329.42
2019-05-29T05:41:12.860Z,99331.85
2019-05-29T05:43:24.001Z,99331.85
2019-05-29T05:45:28.763Z,99340.30
2019-05-29T05:47:50.065Z,99341.57
2019-05-29T05:49:44.860Z,99342.43
2019-05-29T05:51:52.110Z,99345.49
2019-05-29T05:53:58.569Z,99356.44
2019-05-29T05:56:05.303Z,99360.89
2019-05-29T05:58:12.413Z,99361.81
2019-05-29T06:00:33.973Z,99372.48
2019-05-29T06:02:42.018Z,99371.20
2019-05-29T06:04:48.613Z,99373.89
2019-05-29T06:06:55.141Z,99377.05
2019-05-29T06:09:03.575Z,99384.09
2019-05-29T06:11:11.864Z,99381.91
2019-05-29T06:13:18.358Z,99388.94
2019-05-29T06:15:25.506Z,99389.83
2019-05-29T06:17:32.357Z,99395.08
2019-05-29T06:19:39.084Z,99397.45
2019-05-29T06:21:45.455Z,99404.98
2019-05-29T06:23:51.920Z,99399.44
2019-05-29T06:26:01.404Z,99410.66
2019-05-29T06:28:07.934Z,99410.20
2019-05-29T06:30:15.279Z,99416.41
2019-05-29T06:32:23.173Z,99410.34
2019-05-29T06:34:30.724Z,99420.60
2019-05-29T06:36:37.957Z,99416.90
2019-05-29T06:38:44.670Z,99419.98
2019-05-29T06:40:52.330Z,99430.61
2019-05-29T06:42:58.982Z,99430.25
2019-05-29T06:45:08.736Z,99440.42
2019-05-29T06:47:15.557Z,99444.31
2019-05-29T06:49:23.030Z,99446.05
2019-05-29T06:51:29.408Z,99453.13
2019-05-29T06:53:35.876Z,99458.42
2019-05-29T06:55:42.731Z,99464.28
2019-05-29T06:57:50.610Z,99470.93
2019-05-29T06:59:57.008Z,99471.45
2019-05-29T07:02:04.270Z,99473.25
2019-05-29T07:04:12.484Z,99481.19
2019-05-29T07:06:18.973Z,99474.17
2019-05-29T07:08:38.325Z,99495.77
2019-05-29T07:10:34.168Z,99496.19
2019-05-29T07:12:40.544Z,99502.33
2019-05-29T07:14:47.002Z,99506.70
2019-05-29T07:16:56.126Z,99514.66
2019-05-29T07:19:24.813Z,99513.31
2019-05-29T07:21:09.845Z,99522.13
2019-05-29T07:23:16.312Z,99524.70
2019-05-29T07:25:22.723Z,99522.45
2019-05-29T07:27:31.648Z,99529.59
2019-05-29T07:29:39.005Z,99530.54
2019-05-29T07:31:45.646Z,99533.20
2019-05-29T07:33:52.071Z,99538.53
2019-05-29T07:35:58.471Z,99542.95
2019-05-29T07:38:05.023Z,99543.00
2019-05-29T07:40:11.849Z,99558.91
2019-05-29T07:42:18.294Z,99556.35
2019-05-29T07:44:24.689Z,99563.86
2019-05-29T07:46:31.387Z,99566.51
2019-05-29T07:48:38.496Z,99567.34
2019-05-29T07:50:46.065Z,99569.97
2019-05-29T07:52:52.663Z,99577.89
2019-05-29T07:54:59.123Z,99578.34
2019-05-29T07:57:05.656Z,99580.55
2019-05-29T07:59:12.316Z,99594.63
2019-05-29T08:01:18.845Z,99611.02
2019-05-29T08:03:25.300Z,99602.67
2019-05-29T08:05:31.845Z,99605.77
2019-05-29T08:07:39.405Z,99611.55
2019-05-29T08:09:47.742Z,99610.70
2019-05-29T08:11:54.368Z,99621.30
2019-05-29T08:14:00.840Z,99629.73
2019-05-29T08:16:07.470Z,99630.58
2019-05-29T08:18:13.934Z,99634.55
2019-05-29T08:20:20.715Z,99641.13
2019-05-29T08:22:34.301Z,99637.10
2019-05-29T08:24:35.359Z,99639.23
2019-05-29T08:26:42.930Z,99640.63
2019-05-29T08:28:51.183Z,99646.80
2019-05-29T08:30:57.896Z,99647.62
2019-05-29T08:33:04.367Z,99654.17
2019-05-29T08:35:10.980Z,99651.13
2019-05-29T08:37:18.446Z,99655.13
2019-05-29T08:39:35.466Z,99654.23
2019-05-29T08:41:33.080Z,99664.39
2019-05-29T08:43:39.556Z,99664.41
2019-05-29T08:45:45.975Z,99668.81
2019-05-29T08:47:52.636Z,99667.93
2019-05-29T08:50:16.704Z,99671.44
2019-05-29T08:52:11.863Z,99675.78
2019-05-29T08:54:23.882Z,99682.85
2019-05-29T08:56:23.707Z,99683.73
2019-05-29T08:58:31.762Z,99682.86
2019-05-29T09:00:38.181Z,99688.95
2019-05-29T09:02:44.773Z,99686.95
2019-05-29T09:04:53.034Z,99691.27
2019-05-29T09:06:59.463Z,99692.43
2019-05-29T09:09:08.269Z,99692.80
2019-05-29T09:11:14.799Z,99688.81
2019-05-29T09:13:21.238Z,99700.02
2019-05-29T09:15:27.689Z,99700.22
2019-05-29T09:17:34.714Z,99707.74
2019-05-29T09:19:41.533Z,99719.70
2019-05-29T09:21:48.005Z,99727.32
2019-05-29T09:23:58.329Z,99727.39
2019-05-29T09:26:14.062Z,99733.66
2019-05-29T09:28:16.606Z,99738.52
2019-05-29T09:30:24.143Z,99745.52
2019-05-29T09:32:48.371Z,99738.36
2019-05-29T09:34:38.734Z,99735.24
2019-05-29T09:36:45.142Z,99745.78
2019-05-29T09:38:51.882Z,99757.18
2019-05-29T09:40:58.607Z,99754.53
2019-05-29T09:43:05.241Z,99757.50
2019-05-29T09:45:11.755Z,99756.55
2019-05-29T09:47:19.032Z,99754.78
2019-05-29T09:49:26.402Z,99759.27
2019-05-29T09:51:32.918Z,99760.16
2019-05-29T09:53:39.350Z,99772.09
2019-05-29T09:55:45.802Z,99769.88
2019-05-29T09:57:53.843Z,99777.41
2019-05-29T10:00:02.227Z,99776.53
2019-05-29T10:02:10.428Z,99782.71
2019-05-29T10:04:16.895Z,99781.76
2019-05-29T10:06:23.448Z,99789.30
2019-05-29T10:08:30.036Z,99791.58
2019-05-29T10:10:36.509Z,99802.27
2019-05-29T10:12:42.989Z,99806.35
2019-05-29T10:14:51.380Z,99806.84
2019-05-29T10:16:59.215Z,99812.59
2019-05-29T10:19:07.475Z,99818.33
2019-05-29T10:21:14.136Z,99825.36
2019-05-29T10:23:21.415Z,99819.30
2019-05-29T10:25:27.902Z,99818.86
2019-05-29T10:27:34.500Z,99813.14
2019-05-29T10:29:40.902Z,99824.61
2019-05-29T10:31:49.216Z,99822.77
2019-05-29T10:33:55.459Z,99826.66
2019-05-29T10:36:04.094Z,99828.36
2019-05-29T10:38:10.174Z,99822.98
2019-05-29T10:40:18.021Z,99826.02
2019-05-29T10:42:24.558Z,99827.31
2019-05-29T10:44:31.033Z,99831.72
2019-05-29T10:46:37.433Z,99838.34
2019-05-29T10:48:45.376Z,99841.91
2019-05-29T10:50:53.770Z,99854.20
2019-05-29T10:53:00.186Z,99851.03
2019-05-29T10:55:08.203Z,99854.52
2019-05-29T10:57:14.743Z,99851.66
2019-05-29T10:59:21.280Z,99849.89
2019-05-29T11:01:27.875Z,99854.94
2019-05-29T11:03:34.399Z,99863.05
2019-05-29T11:05:42.019Z,99865.70
2019-05-29T11:07:49.681Z,99868.92
2019-05-29T11:09:56.351Z,99858.36
2019-05-29T11:12:02.947Z,99863.14
2019-05-29T11:14:10.650Z,99869.66
2019-05-29T11:16:17.147Z,99861.16
2019-05-29T11:18:23.534Z,99864.67
2019-05-29T11:20:30.309Z,99869.91
2019-05-29T11:22:36.785Z,99873.91
2019-05-29T11:24:43.335Z,99879.75
2019-05-29T11:26:50.338Z,99877.56
2019-05-29T11:28:57.087Z,99874.79
2019-05-29T11:31:06.198Z,99871.55
2019-05-29T11:33:11.769Z,99878.12
2019-05-29T11:35:18.495Z,99874.13
2019-05-29T11:37:25.129Z,99879.39
2019-05-29T11:39:31.683Z,99876.75
2019-05-29T11:41:38.330Z,99880.31
2019-05-29T11:43:44.803Z,99885.59
2019-05-29T11:45:51.401Z,99888.27
2019-05-29T11:47:59.593Z,99898.88
2019-05-29T11:50:19.014Z,99888.25
2019-05-29T11:52:25.066Z,99892.08
2019-05-29T11:54:29.574Z,99895.85
2019-05-29T11:56:36.055Z,99898.33
2019-05-29T11:58:42.694Z,99899.59
2019-05-29T12:00:49.156Z,99902.22
2019-05-29T12:02:55.984Z,99907.64
2019-05-29T12:05:05.758Z,99914.84
2019-05-29T12:07:12.231Z,99910.90
2019-05-29T12:09:32.135Z,99920.66
2019-05-29T12:11:26.866Z,99922.95
2019-05-29T12:13:33.436Z,99921.52
2019-05-29T12:15:39.982Z,99925.87
2019-05-29T12:17:46.561Z,99918.99
2019-05-29T12:19:54.128Z,99919.61
2019-05-29T12:22:02.584Z,99928.77
2019-05-29T12:24:09.085Z,99929.42
2019-05-29T12:26:22.451Z,99932.76
2019-05-29T12:28:23.862Z,99939.55
2019-05-29T12:30:30.773Z,99943.71
2019-05-29T12:32:37.253Z,99937.91
2019-05-29T12:34:53.079Z,99945.42
2019-05-29T12:36:53.246Z,99944.46
2019-05-29T12:39:02.019Z,99953.80
2019-05-29T12:41:08.865Z,99953.34
2019-05-29T12:43:26.556Z,99962.33
2019-05-29T12:45:23.751Z,99963.78
2019-05-29T12:47:30.171Z,99956.83
2019-05-29T12:49:36.691Z,99963.52
2019-05-29T12:51:43.275Z,99956.91
2019-05-29T12:53:49.664Z,99963.14
2019-05-29T12:55:56.258Z,99959.11
2019-05-29T12:58:02.773Z,99955.03
2019-05-29T13:00:19.009Z,99955.80
2019-05-29T13:02:25.455Z,99953.36
2019-05-29T13:04:31.934Z,99954.05
2019-05-29T13:06:38.406Z,99955.20
2019-05-29T13:08:45.144Z,99947.53
2019-05-29T13:10:51.540Z,99953.97
2019-05-29T13:13:03.849Z,99959.69
2019-05-29T13:15:13.422Z,99954.18
2019-05-29T13:17:19.879Z,99957.92
2019-05-29T13:19:26.454Z,99961.61
2019-05-29T13:21:32.847Z,99963.84
2019-05-29T13:23:45.021Z,99961.95
2019-05-29T13:25:47.445Z,99958.77
2019-05-29T13:27:57.270Z,99963.37
2019-05-29T13:30:04.086Z,99961.98
2019-05-29T13:32:10.402Z,99965.52
2019-05-29T13:34:16.806Z,99974.53
2019-05-29T13:36:23.207Z,99965.53
2019-05-29T13:38:29.682Z,99983.90
2019-05-29T13:40:36.078Z,99970.89
2019-05-29T13:42:42.467Z,99984.61
2019-05-29T13:44:48.935Z,99973.06
2019-05-29T13:46:55.374Z,99973.24
2019-05-29T13:49:02.853Z,99978.69
2019-05-29T13:51:09.595Z,99975.09
2019-05-29T13:53:15.988Z,99973.69
2019-05-29T13:55:22.512Z,99976.20
2019-05-29T13:57:28.953Z,99967.84
2019-05-29T13:59:35.423Z,99968.42
2019-05-29T14:01:48.261Z,99968.30
2019-05-29T14:03:53.127Z,99976.91
2019-05-29T14:06:00.794Z,99976.45
2019-05-29T14:08:09.193Z,99975.22
2019-05-29T14:10:17.255Z,99972.42
2019-05-29T14:12:24.075Z,99972.88
2019-05-29T14:14:30.839Z,99980.16
2019-05-29T14:16:37.300Z,99974.25
2019-05-29T14:18:43.757Z,99976.48
2019-05-29T14:20:50.278Z,99983.62
2019-05-29T14:22:56.831Z,99982.41
2019-05-29T14:25:03.313Z,99986.79
2019-05-29T14:27:09.835Z,99981.63
2019-05-29T14:29:16.408Z,99992.45
2019-05-29T14:31:22.839Z,99985.41
2019-05-29T14:33:29.340Z,99983.75
2019-05-29T14:35:35.794Z,99997.78
2019-05-29T14:37:42.357Z,99998.63
2019-05-29T14:39:48.786Z,99997.05
2019-05-29T14:41:55.239Z,100001.88
2019-05-29T14:44:01.798Z,100008.20
2019-05-29T14:46:08.470Z,100014.53
2019-05-29T14:48:15.093Z,100011.16
2019-05-29T14:50:21.924Z,100013.83
2019-05-29T14:52:28.394Z,100020.56
2019-05-29T14:54:41.730Z,100017.64
2019-05-29T14:56:43.492Z,100022.83
2019-05-29T14:58:50.186Z,100026.84
2019-05-29T15:00:56.720Z,100032.27
2019-05-29T15:03:03.393Z,100039.41
2019-05-29T15:05:12.192Z,100033.37
2019-05-29T15:07:22.519Z,100042.70
2019-05-29T15:09:27.018Z,100025.59
2019-05-29T15:11:33.441Z,100031.05
2019-05-29T15:13:40.476Z,100036.33
2019-05-29T15:15:47.007Z,100041.15
2019-05-29T15:17:53.597Z,100029.15
2019-05-29T15:20:00.160Z,100041.60
2019-05-29T15:22:09.204Z,100042.89
2019-05-29T15:24:16.228Z,100049.56
2019-05-29T15:26:23.303Z,100044.61
2019-05-29T15:28:29.763Z,100052.09
2019-05-29T15:30:36.205Z,100059.00
2019-05-29T15:32:42.764Z,100054.72
2019-05-29T15:34:49.424Z,100056.59
2019-05-29T15:36:56.031Z,100060.26
2019-05-29T15:39:02.637Z,100059.48
2019-05-29T15:41:09.047Z,100059.48
2019-05-29T15:43:16.956Z,100065.72
2019-05-29T15:45:25.412Z,100071.82
2019-05-29T15:47:31.957Z,100069.56
2019-05-29T15:49:38.510Z,100069.92
2019-05-29T15:51:44.937Z,100066.91
2019-05-29T15:53:51.496Z,100072.14
2019-05-29T15:55:57.894Z,100074.15
2019-05-29T15:58:04.779Z,100077.55
2019-05-29T16:00:15.477Z,100079.52
2019-05-29T16:02:22.506Z,100078.09
2019-05-29T16:04:28.915Z,100080.23
2019-05-29T16:06:35.451Z,100083.34
2019-05-29T16:08:42.293Z,100087.60
2019-05-29T16:10:48.784Z,100089.32
2019-05-29T16:12:55.309Z,100081.67
2019-05-29T16:15:01.858Z,100086.67
2019-05-29T16:17:08.980Z,100085.80
2019-05-29T16:19:16.272Z,100088.01
2019-05-29T16:21:23.196Z,100092.48
2019-05-29T16:23:35.829Z,100091.65
2019-05-29T16:25:40.661Z,100097.63
2019-05-29T16:27:46.514Z,100097.41
2019-05-29T16:29:53.190Z,100100.98
2019-05-29T16:31:59.863Z,100110.41
2019-05-29T16:34:06.583Z,100112.84
2019-05-29T16:36:14.485Z,100113.30
2019-05-29T16:38:21.839Z,100114.20
2019-05-29T16:40:29.663Z,100114.27
2019-05-29T16:42:36.217Z,100117.41
2019-05-29T16:44:42.698Z,100116.67
2019-05-29T16:46:49.187Z,100115.34
2019-05-29T16:48:55.598Z,100116.67
2019-05-29T16:51:02.168Z,100124.75
2019-05-29T16:53:08.640Z,100127.36
2019-05-29T16:55:16.983Z,100127.75
2019-05-29T16:57:23.895Z,100130.87
2019-05-29T16:59:30.294Z,100134.84
2019-05-29T17:01:36.698Z,100137.52
2019-05-29T17:03:43.176Z,100140.66
2019-05-29T17:05:49.715Z,100145.52
2019-05-29T17:07:56.200Z,100146.38
2019-05-29T17:10:02.692Z,100149.02
2019-05-29T17:12:09.297Z,100145.08
2019-05-29T17:14:16.437Z,100157.19
2019-05-29T17:16:24.816Z,100158.55
2019-05-29T17:18:31.496Z,100158.58
2019-05-29T17:20:46.851Z,100163.95
2019-05-29T17:22:53.350Z,100172.83
2019-05-29T17:24:59.769Z,100175.16
2019-05-29T17:27:06.585Z,100180.04
2019-05-29T17:29:14.733Z,100181.81
2019-05-29T17:31:21.258Z,100185.89
2019-05-29T17:33:27.719Z,100181.97
2019-05-29T17:35:34.132Z,100189.08
2019-05-29T17:37:40.674Z,100190.39
2019-05-29T17:39:47.248Z,100198.44
2019-05-29T17:41:53.824Z,100194.55
2019-05-29T17:44:00.307Z,100197.24
2019-05-29T17:46:07.004Z,100197.26
2019-05-29T17:48:15.444Z,100198.68
2019-05-29T17:50:24.592Z,100198.72
2019-05-29T17:52:30.618Z,100196.59
2019-05-29T17:54:37.380Z,100205.48
2019-05-29T17:56:43.867Z,100212.22
2019-05-29T17:58:50.328Z,100206.07
2019-05-29T18:00:56.884Z,100218.55
2019-05-29T18:03:03.411Z,100216.37
2019-05-29T18:05:10.514Z,100217.78
2019-05-29T18:07:16.973Z,100217.42
2019-05-29T18:09:27.384Z,100217.88
2019-05-29T18:11:33.031Z,100220.11
2019-05-29T18:13:39.628Z,100226.34
2019-05-29T18:15:46.200Z,100234.36
2019-05-29T18:17:52.694Z,100229.48
2019-05-29T18:19:59.144Z,100233.04
2019-05-29T18:22:05.855Z,100240.59
2019-05-29T18:24:12.259Z,100241.03
2019-05-29T18:26:19.983Z,100242.39
2019-05-29T18:28:26.643Z,100241.52
2019-05-29T18:30:33.250Z,100240.20
2019-05-29T18:32:39.868Z,100245.13
2019-05-29T18:34:46.336Z,100249.56
2019-05-29T18:36:53.912Z,100254.48
2019-05-29T18:39:00.335Z,100258.03
2019-05-29T18:41:07.125Z,100257.14
2019-05-29T18:43:13.678Z,100265.56
2019-05-29T18:45:24.503Z,100268.23
2019-05-29T18:47:30.323Z,100264.24
2019-05-29T18:49:36.876Z,100270.48
2019-05-29T18:51:43.304Z,100278.45
2019-05-29T18:53:49.780Z,100284.66
2019-05-29T18:55:56.271Z,100287.77
2019-05-29T18:58:02.942Z,100289.09
2019-05-29T19:00:12.352Z,100295.77
2019-05-29T19:02:19.032Z,100301.09
2019-05-29T19:04:25.587Z,100303.30
2019-05-29T19:06:31.950Z,100309.94
2019-05-29T19:08:38.432Z,100311.27
2019-05-29T19:10:46.624Z,100314.37
2019-05-29T19:12:53.165Z,100318.39
2019-05-29T19:14:59.698Z,100313.95
2019-05-29T19:17:07.334Z,100314.84
2019-05-29T19:19:13.856Z,100315.27
2019-05-29T19:21:20.406Z,100317.96
2019-05-29T19:23:26.880Z,100324.59
2019-05-29T19:25:33.300Z,100323.70
2019-05-29T19:27:42.130Z,100329.02
2019-05-29T19:29:48.657Z,100334.77
2019-05-29T19:31:55.106Z,100341.44
2019-05-29T19:34:01.877Z,100344.52
2019-05-29T19:36:08.582Z,100343.62
2019-05-29T19:38:15.167Z,100350.70
2019-05-29T19:40:21.801Z,100348.51
2019-05-29T19:42:28.280Z,100352.48
2019-05-29T19:44:34.878Z,100358.22
2019-05-29T19:46:53.140Z,100351.16
2019-05-29T19:48:51.078Z,100356.91
2019-05-29T19:50:57.544Z,100358.63
2019-05-29T19:53:04.085Z,100363.02
2019-05-29T19:55:11.375Z,100364.37
2019-05-29T19:57:17.936Z,100363.46
2019-05-29T19:59:24.352Z,100371.40
2019-05-29T20:01:36.166Z,100373.63
2019-05-29T20:03:39.359Z,100378.45
2019-05-29T20:05:45.770Z,100378.02
2019-05-29T20:07:52.287Z,100381.08
2019-05-29T20:09:58.728Z,100381.95
2019-05-29T20:12:05.258Z,100377.09
2019-05-29T20:14:11.848Z,100385.03
2019-05-29T20:16:18.250Z,100395.19
2019-05-29T20:18:24.647Z,100394.73
2019-05-29T20:20:32.303Z,100395.61
2019-05-29T20:22:39.205Z,100394.27
2019-05-29T20:24:45.858Z,100398.64
2019-05-29T20:26:52.348Z,100404.38
2019-05-29T20:28:58.828Z,100405.23
2019-05-29T20:31:05.522Z,100406.08
2019-05-29T20:33:11.948Z,100412.70
2019-05-29T20:35:18.750Z,100418.84
2019-05-29T20:37:25.277Z,100412.62
2019-05-29T20:39:32.979Z,100418.30
2019-05-29T20:41:42.137Z,100420.02
2019-05-29T20:43:48.288Z,100423.03
2019-05-29T20:45:54.751Z,100421.26
2019-05-29T20:48:01.227Z,100419.83
2019-05-29T20:50:09.595Z,100429.05
2019-05-29T20:52:16.068Z,100436.03
2019-05-29T20:54:22.681Z,100427.09
2019-05-29T20:56:29.265Z,100436.31
2019-05-29T20:58:35.708Z,100438.42
2019-05-29T21:00:42.396Z,100439.70
2019-05-29T21:02:49.120Z,100449.30
2019-05-29T21:04:57.726Z,100452.31
2019-05-29T21:07:04.455Z,100450.92
2019-05-29T21:09:11.075Z,100449.50
2019-05-29T21:11:17.485Z,100454.73
2019-05-29T21:13:23.945Z,100466.14
2019-05-29T21:15:30.566Z,100461.64
2019-05-29T21:17:37.886Z,100465.55
2019-05-29T21:19:44.823Z,100461.06
2019-05-29T21:21:51.284Z,100467.61
2019-05-29T21:23:57.743Z,100475.42
2019-05-29T21:26:04.492Z,100472.26
2019-05-29T21:28:10.905Z,100482.30
2019-05-29T21:30:23.687Z,100480.05
2019-05-29T21:32:30.150Z,100488.78
2019-05-29T21:34:37.648Z,100488.67
2019-05-29T21:36:44.345Z,100491.27
2019-05-29T21:38:50.805Z,100495.12
2019-05-29T21:40:57.405Z,100495.92
2019-05-29T21:43:03.884Z,100498.52
2019-05-29T21:45:11.135Z,100509.03
2019-05-29T21:47:18.765Z,100501.05
2019-05-29T21:49:26.732Z,100512.88
2019-05-29T21:51:34.180Z,100513.66
2019-05-29T21:53:41.816Z,100509.14
2019-05-29T21:55:48.422Z,100512.63
2019-05-29T21:57:55.423Z,100524.84
2019-05-29T22:00:07.831Z,100517.25
2019-05-29T22:02:15.933Z,100529.11
2019-05-29T22:04:22.400Z,100531.69
2019-05-29T22:06:29.175Z,100539.94
2019-05-29T22:08:35.830Z,100535.48
2019-05-29T22:10:42.881Z,100535.82
2019-05-29T22:12:50.312Z,100540.58
2019-05-29T22:14:57.020Z,100536.09
2019-05-29T22:17:03.645Z,100538.59
2019-05-29T22:19:10.237Z,100542.45
2019-05-29T22:21:16.755Z,100544.13
2019-05-29T22:23:23.224Z,100539.68
2019-05-29T22:25:33.591Z,100538.25
2019-05-29T22:27:38.923Z,100542.58
2019-05-29T22:29:45.303Z,100545.56
2019-05-29T22:31:51.767Z,100540.69
2019-05-29T22:33:59.484Z,100537.09
2019-05-29T22:36:06.510Z,100536.59
2019-05-29T22:38:13.027Z,100539.58
2019-05-29T22:40:19.633Z,100542.11
2019-05-29T22:42:26.179Z,100546.45
2019-05-29T22:44:32.669Z,100541.92
2019-05-29T22:46:39.144Z,100536.97
2019-05-29T22:48:45.675Z,100536.47
2019-05-29T22:50:52.218Z,100533.76
2019-05-29T22:52:59.868Z,100534.53
2019-05-29T22:55:09.446Z,100535.35
2019-05-29T22:57:15.980Z,100529.61
2019-05-29T22:59:31.371Z,100529.92
2019-05-29T23:01:30.691Z,100534.27
2019-05-29T23:03:37.300Z,100543.41
2019-05-29T23:05:43.843Z,100542.91
2019-05-29T23:07:50.384Z,100547.24
2019-05-29T23:09:56.767Z,100545.03
2019-05-29T23:12:03.183Z,100547.16
2019-05-29T23:14:09.752Z,100554.14
2019-05-29T23:16:16.318Z,100555.37
2019-05-29T23:18:22.776Z,100548.66
2019-05-29T23:20:29.170Z,100546.30
2019-05-29T23:22:35.689Z,100551.48
2019-05-29T23:24:42.299Z,100549.16
2019-05-29T23:26:48.824Z,100555.66
2019-05-29T23:28:55.389Z,100551.15
2019-05-29T23:31:02.978Z,100554.08
2019-05-29T23:33:09.489Z,100555.70
2019-05-29T23:35:16.324Z,100565.75
2019-05-29T23:37:23.036Z,100562.09
2019-05-29T23:39:29.567Z,100569.06
2019-05-29T23:41:36.021Z,100565.07
2019-05-29T23:43:42.526Z,100574.66
2019-05-29T23:45:48.988Z,100575.50
2019-05-29T23:47:55.576Z,100575.37
2019-05-29T23:50:03.187Z,100577.91
2019-05-29T23:52:10.335Z,100575.19
2019-05-29T23:54:16.802Z,100576.83
2019-05-29T23:56:23.276Z,100580.22
2019-05-29T23:58:29.935Z,100582.77
